Latest Coastal Weather Observations for Yarram Airport

IDV60701

Issued at 10:02 am EDT Friday 24 February 2017 (issued every 10 minutes, with the page automatically refreshed every 10 minutes)

About coastal observations | Map of coastal stations | Coastal observations for VIC | Marine services | Other Formats
Station Details ID: 085151 Name: YARRAM AIRPORT Lat: -38.56 Lon: 146.75 Height: 17.9 m
Data from the previous 72 hours. | See also: Recent months at Yarram Airport
Date/Time
EDT
Temp
°C
Wind Pressure Rain since
9am
mm
Weather Cloud Vis
km
Sea
Height
m
Swell
Dir  Spd
kts
Gust
kts
hPa Trend Height
m
Period
s
Dir
24/10:00am 17.7 WSW 13 13 1024.0 - - - - - - - - -
24/09:30am 17.1 WSW 13 18 1023.8 - 0.0 - - - - - - -
24/09:00am 16.2 W 13 16 1023.7 - 0.0 - - - - - - -
24/08:30am 15.7 WSW 13 17 1023.5 - 0.0 - - - - - - -
24/08:00am 15.3 WSW 12 16 1023.0 - 0.0 - - - - - - -
24/07:30am 15.0 WSW 10 13 1022.7 - 0.0 - - - - - - -
24/07:00am 15.0 WSW 10 13 1022.6 - 0.0 - - - - - - -
24/06:30am 14.9 WSW 11 13 1022.3 - 0.0 - - - - - - -
24/06:00am 14.8 WSW 6 8 1022.1 - 0.0 - - - - - - -
24/05:30am 14.8 W 7 10 1022.0 - 0.0 - - - - - - -
24/05:00am 14.8 W 8 10 1021.9 - 0.0 - - - - - - -
24/04:30am 14.7 WSW 8 11 1021.9 - 0.0 - - - - - - -
24/04:00am 15.0 W 7 11 1022.0 - 0.0 - - - - - - -
24/03:30am 14.9 WSW 9 12 1021.9 - 0.0 - - - - - - -
24/03:00am 15.5 SW 11 14 1021.9 - 0.0 - - - - - - -
24/02:30am 15.6 W 6 8 1021.9 - 0.0 - - - - - - -
24/02:00am 15.7 W 6 7 1022.0 - 0.0 - - - - - - -
24/01:30am 16.0 WSW 9 14 1022.3 - 0.0 - - - - - - -
24/01:00am 16.2 WNW 7 8 1022.2 - 0.0 - - - - - - -
24/12:30am 17.0 W 8 10 1022.1 - 0.0 - - - - - - -
24/12:00am 17.0 W 7 9 1021.8 - 0.0 - - - - - - -
 
Date/Time
EDT
Temp
°C
Wind Pressure Rain since
9am
mm
Weather Cloud Vis
km
Sea
Height
m
Swell
Dir  Spd
kts
Gust
kts
hPa Trend Height
m
Period
s
Dir
23/11:30pm 16.9 W 7 9 1021.9 - 0.0 - - - - - - -
23/11:00pm 16.1 WNW 6 7 1021.8 - 0.0 - - - - - - -
23/10:30pm 16.4 W 9 11 1021.6 - 0.0 - - - - - - -
23/10:00pm 17.0 WSW 8 10 1021.5 - 0.0 - - - - - - -
23/09:30pm 17.8 WSW 10 13 1021.5 - 0.0 - - - - - - -
23/09:00pm 16.9 WSW 8 11 1021.3 - 0.0 - - - - - - -
23/08:30pm 17.5 SW 14 18 1020.4 - 0.0 - - - - - - -
23/08:00pm 18.2 SW 12 16 1019.8 - 0.0 - - - - - - -
23/07:30pm 19.4 SW 11 16 1019.2 - 0.0 - - - - - - -
23/07:00pm 20.7 SW 15 21 1018.7 - 0.0 - - - - - - -
23/06:30pm 21.6 SW 18 23 1018.1 - 0.0 - - - - - - -
23/06:00pm 22.6 SW 20 24 1017.4 - 0.0 - - - - - - -
23/05:30pm 23.3 SW 20 25 1017.1 - 0.0 - - - - - - -
23/05:00pm 23.6 SW 19 24 1016.7 - 0.0 - - - - - - -
23/04:30pm 24.7 SW 18 25 1016.6 - 0.0 - - - - - - -
23/04:00pm 24.8 WSW 20 24 1016.4 - 0.0 - - - - - - -
23/03:30pm 25.5 WSW 19 25 1016.2 - 0.0 - - - - - - -
23/03:00pm 25.8 SW 19 26 1016.1 - 0.0 - - - - - - -
23/02:43pm 25.8 SW 16 26 1016.2 - 0.0 - - - - - - -
23/02:30pm 26.3 WSW 14 22 1016.2 - 0.0 - - - - - - -
23/02:00pm 25.7 WSW 15 21 1016.4 - 0.0 - - - - - - -
23/01:30pm 25.8 W 15 22 1016.5 - 0.0 - - - - - - -
23/01:00pm 25.5 W 14 19 1016.4 - 0.0 - - - - - - -
23/12:31pm 24.9 W 16 26 1016.3 - 0.0 - - - - - - -
23/12:30pm 25.4 WSW 17 26 1016.3 - 0.0 - - - - - - -
23/12:00pm 24.3 W 14 19 1016.4 - 0.0 - - - - - - -
23/11:30am 24.1 WSW 12 21 1016.4 - 0.0 - - - - - - -
23/11:00am 23.7 W 12 18 1016.4 - 0.0 - - - - - - -
23/10:30am 22.7 WNW 13 18 1016.3 - 0.0 - - - - - - -
23/10:00am 22.3 WNW 15 20 1016.1 - 0.0 - - - - - - -
23/09:30am 21.9 W 16 21 1015.8 - 0.0 - - - - - - -
23/09:00am 21.2 W 11 15 1015.6 - 0.0 - - - - - - -
23/08:30am 19.7 WNW 7 8 1015.3 - 0.0 - - - - - - -
23/08:00am 18.3 W 7 8 1014.8 - 0.0 - - - - - - -
23/07:30am 15.3 WNW 2 3 1014.2 - 0.0 - - - - - - -
23/07:00am 16.1 W 5 7 1013.6 - 0.0 - - - - - - -
23/06:30am 15.2 CALM 0 0 1013.0 - 0.0 - - - - - - -
23/06:00am 17.0 W 7 10 1012.3 - 0.0 - - - - - - -
23/05:30am 17.1 W 8 12 1012.1 - 0.0 - - - - - - -
23/05:00am 16.9 W 6 9 1012.1 - 0.0 - - - - - - -
23/04:30am 17.1 W 8 11 1011.7 - 0.0 - - - - - - -
23/04:00am 17.2 W 7 9 1011.8 - 0.0 - - - - - - -
23/03:30am 18.2 W 10 14 1011.7 - 0.0 - - - - - - -
23/03:00am 19.5 W 15 21 1011.5 - 0.0 - - - - - - -
23/02:30am 20.0 W 15 22 1011.2 - 0.0 - - - - - - -
23/02:00am 20.6 W 16 22 1010.8 - 0.0 - - - - - - -
23/01:30am 21.1 W 15 19 1010.0 - 0.0 - - - - - - -
23/01:00am 23.7 NNE 14 18 1008.1 - 0.0 - - - - - - -
23/12:49am 22.1 NNE 11 17 1008.3 - 0.0 - - - - - - -
23/12:30am 16.8 ENE 7 9 1008.9 - 0.0 - - - - - - -
23/12:00am 16.0 ESE 4 5 1009.5 - 0.0 - - - - - - -
 
Date/Time
EDT
Temp
°C
Wind Pressure Rain since
9am
mm
Weather Cloud Vis
km
Sea
Height
m
Swell
Dir  Spd
kts
Gust
kts
hPa Trend Height
m
Period
s
Dir
22/11:30pm 18.2 ENE 5 7 1009.8 - 0.0 - - - - - - -
22/11:00pm 17.8 NE 5 7 1010.2 - 0.0 - - - - - - -
22/10:30pm 17.0 NNE 6 8 1010.4 - 0.0 - - - - - - -
22/10:00pm 17.1 NNE 8 9 1010.7 - 0.0 - - - - - - -
22/09:30pm 18.4 NNE 8 9 1011.0 - 0.0 - - - - - - -
22/09:00pm 20.3 NE 8 11 1010.9 - 0.0 - - - - - - -
22/08:30pm 20.5 NE 8 11 1011.1 - 0.0 - - - - - - -
22/08:00pm 21.1 E 7 9 1011.1 - 0.0 - - - - - - -
22/07:30pm 23.3 ENE 6 9 1011.1 - 0.0 - - - - - - -
22/07:00pm 23.7 ENE 7 9 1011.0 - 0.0 - - - - - - -
22/06:30pm 24.9 ENE 8 13 1011.1 - 0.0 - - - - - - -
22/06:00pm 26.3 E 12 18 1010.6 - 0.0 - - - - - - -
22/05:30pm 26.7 E 11 15 1010.9 - 0.0 - - - - - - -
22/05:00pm 27.7 E 10 14 1011.3 - 0.0 - - - - - - -
22/04:30pm 26.9 E 10 15 1011.5 - 0.0 - - - - - - -
22/04:00pm 26.4 ENE 11 14 1011.9 - 0.0 - - - - - - -
22/03:30pm 27.9 E 11 15 1012.5 - 0.0 - - - - - - -
22/03:00pm 27.6 E 10 14 1012.9 - 0.0 - - - - - - -
22/02:30pm 27.5 ESE 11 15 1013.3 - 0.0 - - - - - - -
22/02:00pm 27.3 SE 11 14 1013.5 - 0.0 - - - - - - -
22/01:30pm 27.3 ESE 10 14 1013.7 - 0.0 - - - - - - -
22/01:00pm 27.4 ESE 9 15 1013.9 - 0.0 - - - - - - -
22/12:30pm 27.4 NNE 5 9 1014.3 - 0.0 - - - - - - -
22/12:00pm 26.8 ENE 7 10 1014.8 - 0.0 - - - - - - -
22/11:30am 25.4 ENE 7 11 1015.0 - 0.0 - - - - - - -
22/11:00am 24.2 ENE 7 11 1015.5 - 0.0 - - - - - - -
22/10:30am 22.4 NE 8 11 1016.1 - 0.0 - - - - - - -
22/10:00am 21.9 NE 8 11 1016.4 - 0.0 - - - - - - -
22/09:30am 19.8 NE 9 12 1016.6 - 0.0 - - - - - - -
22/09:00am 18.4 NE 8 12 1016.8 - 0.2 - - - - - - -
22/08:30am 17.1 NE 8 11 1017.0 - 0.2 - - - - - - -
22/08:00am 15.1 NE 5 7 1017.0 - 0.2 - - - - - - -
22/07:30am 12.2 NE 4 5 1017.0 - 0.0 - - - - - - -
22/07:00am 10.9 NE 5 6 1016.9 - 0.0 - - - - - - -
22/06:30am 11.7 NE 6 7 1016.9 - 0.0 - - - - - - -
22/06:00am 11.9 NE 6 7 1017.0 - 0.0 - - - - - - -
22/05:30am 11.5 NE 5 6 1017.1 - 0.0 - - - - - - -
22/05:00am 11.9 NE 6 8 1017.2 - 0.0 - - - - - - -
22/04:30am 11.9 NE 6 7 1017.3 - 0.0 - - - - - - -
22/04:00am 12.3 NE 6 7 1017.5 - 0.0 - - - - - - -
22/03:30am 12.4 NE 5 7 1017.7 - 0.0 - - - - - - -
22/03:00am 11.6 NE 5 7 1018.2 - 0.0 - - - - - - -
22/02:30am 12.2 NE 5 7 1018.6 - 0.0 - - - - - - -
22/02:00am 12.6 NE 6 8 1018.8 - 0.0 - - - - - - -
22/01:30am 12.4 NE 7 8 1019.3 - 0.0 - - - - - - -
22/01:00am 12.5 NE 8 10 1019.7 - 0.0 - - - - - - -
22/12:30am 12.3 NE 7 9 1020.0 - 0.0 - - - - - - -
22/12:00am 12.0 NE 7 8 1020.4 - 0.0 - - - - - - -
 
Date/Time
EDT
Temp
°C
Wind Pressure Rain since
9am
mm
Weather Cloud Vis
km
Sea
Height
m
Swell
Dir  Spd
kts
Gust
kts
hPa Trend Height
m
Period
s
Dir
21/11:30pm 12.0 NE 6 7 1020.8 - 0.0 - - - - - - -
21/11:00pm 11.8 NNE 7 8 1020.8 - 0.0 - - - - - - -
21/10:30pm 11.9 NNE 6 7 1021.0 - 0.0 - - - - - - -
21/10:00pm 12.4 NNE 5 6 1020.9 - 0.0 - - - - - - -
21/09:30pm 13.1 NE 4 5 1020.7 - 0.0 - - - - - - -
21/09:00pm 13.8 NE 4 5 1020.4 - 0.0 - - - - - - -
21/08:30pm 15.0 E 4 6 1020.2 - 0.0 - - - - - - -
21/08:00pm 16.1 ESE 5 6 1019.8 - 0.0 - - - - - - -
21/07:30pm 17.7 SE 7 9 1019.5 - 0.0 - - - - - - -
21/07:00pm 18.4 SE 10 13 1019.1 - 0.0 - - - - - - -
21/06:30pm 19.1 SSE 11 15 1018.8 - 0.0 - - - - - - -
21/06:00pm 19.7 SSE 11 14 1018.7 - 0.0 - - - - - - -
21/05:30pm 21.4 SSW 10 15 1018.7 - 0.0 - - - - - - -
21/05:00pm 21.0 SSW 10 14 1018.8 - 0.0 - - - - - - -
21/04:30pm 21.5 SSW 11 18 1019.0 - 0.0 - - - - - - -
21/04:00pm 21.0 SW 12 16 1019.1 - 0.0 - - - - - - -
21/03:30pm 21.5 WSW 10 15 1019.2 - 0.0 - - - - - - -
21/03:00pm 20.2 SW 7 12 1019.6 - 0.0 - - - - - - -
21/02:30pm 20.7 WSW 10 15 1019.9 - 0.0 - - - - - - -
21/02:00pm 19.6 SW 11 15 1020.1 - 0.0 - - - - - - -
21/01:30pm 19.1 SW 11 17 1020.5 - 0.0 - - - - - - -
21/01:00pm 19.2 WSW 9 15 1020.5 - 0.0 - - - - - - -
21/12:30pm 18.1 WSW 10 14 1020.6 - 0.0 - - - - - - -
21/12:00pm 18.4 WSW 9 15 1020.8 - 0.0 - - - - - - -
21/11:30am 18.5 W 8 13 1020.9 - 0.0 - - - - - - -
21/11:00am 18.0 WNW 11 16 1021.1 - 0.0 - - - - - - -
21/10:30am 17.6 W 9 13 1021.0 - 0.0 - - - - - - -

Other Formats:

Comma delimited format used in spreadsheet applications
http://www.bom.gov.au/fwo/IDV60701/IDV60701.95890.axf

JavaScript Object Notation format (JSON) in row-major order
http://www.bom.gov.au/fwo/IDV60701/IDV60701.95890.json